Okeanos Explorer — WTDH — position and weather

sailwx.info

Track history (hours):
 
Tides and Currents Weather Stations Pressure Air Temp Water Temp Dewpoint Dewpoint Depression Visibility Wind Speed Wind Dir Waves Ship Positions

Oceanographic research ship Okeanos Explorer (USA)

Ship's website: http://oceanexplorer.noaa.gov/okeanos/

Last reported at 2017-May-19 18:00 UTC. Time now 2017-May-28 12:24 UTC.
Position N 21°18' W 158°00'.
Warning: this ship's position is 8 days out of date.

Length 69 m; draft 5 m.

Type: Other ship. MMSI: 369888000.

Wind from 090 at 5 knots

Barometer 1015.6 mb
Water temperature 26.1 ° C

Date/timePositionNaut miles runAvg speedWind from/ knotsBaromVisibWave heightAir tempDewpointWater temp
2017-May-19 18:00N 21°18' W 158°00'6 6.0 090 / 51015.6 26.1
2017-May-19 17:00N 21°12' W 158°00'8 8.2 130 / 91015.3 26.1
2017-May-19 16:00N 21°06' W 157°54'6 6.0 130 / 91014.6 25.8
2017-May-19 15:00N 21°00' W 157°54'6 6.0 120 / 91014.6 25.6
2017-May-19 14:00N 20°54' W 157°54'8 8.2 130 / 41014.5 26.1
2017-May-19 13:00N 20°48' W 158°00'6 6.0 150 / 31014.6 26.2
2017-May-19 12:00N 20°54' W 158°00'6 5.6 130 / 31015.0 26.2
2017-May-19 11:00N 20°54' W 157°54'8 8.2 180 / 31015.2 25.9
2017-May-19 10:00N 20°48' W 158°00'6 6.0 160 / 61015.6 26.2
2017-May-19 09:00N 20°42' W 158°00'8 8.2 100 / 21016.0 26.5
2017-May-19 08:00N 20°36' W 158°06'0 0.0 060 / 31016.0 26.8
2017-May-19 07:00N 20°36' W 158°06'1212.0 240 / 21015.6 26.5
2017-May-19 06:00N 20°24' W 158°06'6 6.0 110 / 21015.2 26.1
2017-May-19 05:00N 20°18' W 158°06'1313.3 130 / 21014.9 25.7
2017-May-19 04:00N 20°06' W 158°12'6 6.0 140 / 41014.6 26.2
2017-May-19 03:00N 20°00' W 158°12'1313.3 120 / 31014.2 26.2
2017-May-19 02:00N 19°48' W 158°18'6 6.0 150 / 41014.3 26.4
2017-May-19 01:00N 19°42' W 158°18'8 8.2 160 / 51014.6 26.2
2017-May-19 00:00N 19°36' W 158°24'8 8.2 120 / 71015.0 25.9
2017-May-18 23:00N 19°30' W 158°30'1212.0 120 / 51015.5 26.0
2017-May-18 22:00N 19°18' W 158°30'8 8.3 110 / 91016.0 25.9
2017-May-18 21:00N 19°12' W 158°36'6 6.0 110 / 101016.3 25.9
2017-May-18 20:00N 19°06' W 158°36'1313.3 100 / 101016.2 25.9
2017-May-18 19:00N 18°54' W 158°42'8 8.3 100 / 121016.0 25.8
2017-May-18 18:00N 18°48' W 158°48'6 6.0 080 / 101015.8 26.1
2017-May-18 17:00N 18°42' W 158°48'1313.3 080 / 101015.1 26.1
2017-May-18 16:00N 18°30' W 158°54'8 8.3 100 / 121014.6 26.0
2017-May-18 15:00N 18°24' W 159°00'1313.3 100 / 131014.2 26.0
2017-May-18 14:00N 18°12' W 159°06'6 6.0 110 / 151014.2 25.9
2017-May-18 13:00N 18°06' W 159°06'1313.3 110 / 141014.2 25.9
2017-May-18 12:00N 17°54' W 159°12'8 8.3 110 / 161014.6 25.9
2017-May-18 11:00N 17°48' W 159°18'1212.0 110 / 181015.1 25.9
2017-May-18 10:00N 17°36' W 159°18'8 8.3 110 / 201015.6 26.0
2017-May-18 09:00N 17°30' W 159°24'8 8.3 110 / 181015.9 26.0
2017-May-18 08:00N 17°24' W 159°30'1212.0 110 / 201015.6 26.0
2017-May-18 07:00N 17°12' W 159°30'8 8.3 110 / 211015.2 26.0
2017-May-18 06:00N 17°06' W 159°36'8 8.3 110 / 231014.6 26.0
2017-May-18 05:00N 17°00' W 159°42'6 6.0 100 / 221014.2 26.1
2017-May-18 04:00N 16°54' W 159°42'1313.3 090 / 221013.6 26.2
2017-May-18 03:00N 16°42' W 159°48'6 6.0 090 / 231013.3 26.3
2017-May-18 02:00N 16°36' W 159°48'8 8.3 090 / 231013.3 26.4
2017-May-18 01:00N 16°30' W 159°54'8 8.3 090 / 241013.2 26.3
2017-May-18 00:00N 16°24' W 160°00'1212.0 090 / 201013.9 26.3
2017-May-17 23:00N 16°12' W 160°00'8 8.3 090 / 221014.1 26.4
2017-May-17 22:00N 16°06' W 160°06'6 6.0 100 / 241014.5 26.3
2017-May-17 21:00N 16°00' W 160°06'1212.0 090 / 231014.9 26.3
2017-May-17 20:00N 15°48' W 160°06'8 8.3 090 / 241015.0 26.3
2017-May-17 19:00N 15°42' W 160°12'6 6.0 090 / 251014.6 26.3
2017-May-17 18:00N 15°36' W 160°12'1313.3 090 / 221014.4 26.3
2017-May-17 17:00N 15°24' W 160°18'6 6.0 080 / 241013.7 26.3
2017-May-17 16:00N 15°18' W 160°18'8 8.3 090 / 241013.3 26.3
2017-May-17 15:00N 15°12' W 160°24'1212.0 080 / 251013.0 26.3
2017-May-17 14:00N 15°00' W 160°24'6 6.0 090 / 261012.8 26.3
2017-May-17 13:00N 14°54' W 160°24'6 6.0 080 / 261013.2 26.3
2017-May-17 12:00N 14°48' W 160°24'8 8.3 070 / 211013.8 26.3
2017-May-17 11:00N 14°42' W 160°30'8 8.3 080 / 221014.2 26.2
2017-May-17 10:00N 14°36' W 160°36'6 6.0 080 / 231014.6 26.2
2017-May-17 09:00N 14°30' W 160°36'8 8.4 090 / 241014.7 26.3
2017-May-17 08:00N 14°24' W 160°42'6 6.0 090 / 261014.3 26.3
2017-May-17 07:00N 14°18' W 160°42'1313.3 080 / 251013.8 26.3
2017-May-17 06:00N 14°06' W 160°48'6 6.0 080 / 241013.3 26.4
2017-May-17 05:00N 14°00' W 160°48'8 8.4 080 / 201012.8 26.4
2017-May-17 04:00N 13°54' W 160°54'1212.0 090 / 191012.6 26.4
2017-May-17 03:00N 13°42' W 160°54'8 8.4 100 / 211011.9 26.6
2017-May-17 02:00N 13°36' W 161°00'6 6.0 100 / 221011.9 26.6
2017-May-17 01:00N 13°30' W 161°00'6 6.0 090 / 221012.0 26.6
2017-May-17 00:00N 13°24' W 161°00'1313.3 090 / 231012.2 26.7
2017-May-16 23:00N 13°12' W 161°06'6 6.0 090 / 251012.8 26.8
2017-May-16 22:00N 13°06' W 161°06'8 8.4 090 / 251012.8 26.8
2017-May-16 21:00N 13°00' W 161°12'6 6.0 090 / 261013.0 27.0
2017-May-16 20:00N 12°54' W 161°12'8 8.4 090 / 271013.1 27.0
2017-May-16 19:00N 12°48' W 161°18'1212.0 100 / 261013.0 27.0
2017-May-16 18:00N 12°36' W 161°18'8 8.4 100 / 261012.6 27.1
2017-May-16 17:00N 12°30' W 161°24'6 6.0 090 / 271011.7 27.1
2017-May-16 16:00N 12°24' W 161°24'6 6.0 090 / 281011.0 27.1
2017-May-16 15:00N 12°18' W 161°24'1313.4 100 / 241010.7 27.1
2017-May-16 14:00N 12°06' W 161°30'6 6.0 080 / 251010.6 27.1
2017-May-16 13:00N 12°00' W 161°30'8 8.4 090 / 261010.8 27.1
2017-May-16 12:00N 11°54' W 161°36'6 6.0 090 / 251011.2 27.1
2017-May-16 11:00N 11°48' W 161°36'1313.4 080 / 261011.5 27.1
2017-May-16 10:00N 11°36' W 161°42'6 6.0 090 / 251012.2 27.1
2017-May-16 09:00N 11°30' W 161°42'8 8.4 080 / 251012.2 27.1
2017-May-16 08:00N 11°24' W 161°48'6 6.0 080 / 251012.0 27.2
2017-May-16 07:00N 11°18' W 161°48'1313.4 090 / 261011.6 27.2
2017-May-16 06:00N 11°06' W 161°54'6 6.0 080 / 241011.2 27.2
2017-May-16 05:00N 11°00' W 161°54'8 8.4 090 / 251010.8 27.3
2017-May-16 04:00N 10°54' W 162°00'6 6.0 080 / 271010.2 27.3
2017-May-16 03:00N 10°48' W 162°00'6 6.0 090 / 281010.2 27.3
2017-May-16 02:00N 10°42' W 162°00'1313.4 080 / 241010.2 27.3
2017-May-16 01:00N 10°30' W 162°06'6 6.0 080 / 251010.4 27.3
2017-May-16 00:00N 10°24' W 162°06'8 8.4 080 / 241010.9 27.3
2017-May-15 23:00N 10°18' W 162°12'6 6.0 080 / 261011.2 27.3
2017-May-15 22:00N 10°12' W 162°12'1313.4 080 / 241011.4 27.3
2017-May-15 21:00N 10°00' W 162°18'0 0.0 080 / 231011.6 27.3
2017-May-15 20:00N 10°00' W 162°18'0 0.0 060 / 211011.9 27.3
2017-May-15 19:00N 10°00' W 162°18'6 5.9 060 / 211011.7 27.3
2017-May-15 18:00N 10°00' W 162°12'0 0.0 060 / 231011.3 27.3
2017-May-15 17:00N 10°00' W 162°12'6 6.0 070 / 221010.7 27.3
2017-May-15 16:00N 09°54' W 162°12'6 6.0 070 / 271010.1 27.4
2017-May-15 15:00N 09°48' W 162°12'1212.0 070 / 251010.0 27.6
2017-May-15 14:00N 09°36' W 162°12'8 8.4 080 / 221009.8 27.7
2017-May-15 13:00N 09°30' W 162°06'6 6.0 070 / 241010.1 27.9
2017-May-15 12:00N 09°24' W 162°06'1313.4 080 / 241010.6 28.0
2017-May-15 11:00N 09°12' W 162°00'6 6.0 100 / 221011.3 28.1
2017-May-15 10:00N 09°06' W 162°00'1313.4 080 / 261011.5 28.1
2017-May-15 09:00N 08°54' W 161°54'8 8.4 080 / 231011.7 28.1
2017-May-15 08:00N 08°48' W 161°48'6 6.0 080 / 221011.5 28.2
2017-May-15 07:00N 08°42' W 161°48'1313.4 080 / 251010.9 28.2
2017-May-15 06:00N 08°30' W 161°42'6 6.0 080 / 231010.3 28.2
2017-May-15 05:00N 08°24' W 161°42'1313.4 080 / 231010.0 28.2
2017-May-15 04:00N 08°12' W 161°36'6 6.0 080 / 251009.2 28.1
2017-May-15 03:00N 08°06' W 161°36'6 6.0 070 / 281008.8 28.1
2017-May-15 02:00N 08°00' W 161°36'1313.4 070 / 241009.2 28.1
2017-May-15 01:00N 07°48' W 161°30'8 8.4 070 / 231009.6 28.1
2017-May-15 00:00N 07°42' W 161°24'6 6.0 070 / 241010.3 28.1
2017-May-14 23:00N 07°36' W 161°24'8 8.4 070 / 241010.6 28.1
2017-May-14 22:00N 07°30' W 161°18'1313.4 070 / 241011.0 28.1
2017-May-14 21:00N 07°18' W 161°12'6 6.0 070 / 241011.4 28.1
2017-May-14 20:00N 07°12' W 161°12'0 0.0 050 / 241011.5 28.0
2017-May-14 19:00N 07°12' W 161°12'0 0.0 060 / 201011.1 28.0
2017-May-14 18:00N 07°12' W 161°12'0 0.0 060 / 221010.8 28.0
2017-May-14 17:00N 07°12' W 161°12'8 8.5 060 / 211010.2 28.0
2017-May-14 16:00N 07°06' W 161°18'6 6.0 060 / 221009.9 28.0
2017-May-14 15:00N 07°06' W 161°24'6 6.0 060 / 211009.6 28.0
2017-May-14 14:00N 07°00' W 161°24'8 8.5 060 / 211009.6 28.0
2017-May-14 13:00N 06°54' W 161°30'6 6.0 050 / 201009.9 28.0
2017-May-14 12:00N 06°54' W 161°36'8 8.5 070 / 171010.3 28.0
2017-May-14 11:00N 06°48' W 161°42'8 8.5 060 / 191010.8 28.1
2017-May-14 10:00N 06°42' W 161°48'8 8.5 060 / 161011.0 28.2
2017-May-14 09:00N 06°36' W 161°54'6 6.0 060 / 211011.0 28.2
2017-May-14 08:00N 06°36' W 162°00'8 8.5 070 / 201010.8 28.2
2017-May-14 07:00N 06°30' W 162°06'8 8.5 050 / 211010.3 28.2
2017-May-14 06:00N 06°24' W 162°12'0 0.0 070 / 201009.8 28.2
2017-May-14 05:00N 06°24' W 162°12'0 0.0 050 / 181009.4 28.2
2017-May-14 04:00N 06°24' W 162°12'0 0.0 040 / 201009.0 28.2
2017-May-14 03:00N 06°24' W 162°12'0 0.0 040 / 191008.8 28.2
2017-May-14 02:00N 06°24' W 162°12'0 0.0 050 / 181009.2 28.3
2017-May-14 01:00N 06°24' W 162°12'0 0.0 050 / 211009.5 28.2
2017-May-14 00:00N 06°24' W 162°12'0 0.0 050 / 181010.1 28.2
2017-May-13 23:00N 06°24' W 162°12'0 0.0 060 / 201010.7 28.2
2017-May-13 22:00N 06°24' W 162°12'0 0.0 040 / 181011.2 28.2
2017-May-13 21:00N 06°24' W 162°12'0 0.0 040 / 191011.5 28.2
2017-May-13 20:00N 06°24' W 162°12'0 0.0 050 / 201011.5 28.1
2017-May-13 19:00N 06°24' W 162°12'0 0.0 060 / 181011.5 28.1
2017-May-13 18:00N 06°24' W 162°12'0 0.0 050 / 161011.0 28.1
2017-May-13 17:00N 06°24' W 162°12'8 8.5 060 / 161011.0 28.1
2017-May-13 16:00N 06°30' W 162°06'8 8.5 040 / 161010.8 28.1
2017-May-13 15:00N 06°24' W 162°00'1313.4 050 / 201010.1 28.2
2017-May-13 14:00N 06°18' W 161°48'8 8.5 060 / 191010.1 28.2
2017-May-13 13:00N 06°24' W 161°42'19 9.4 040 / 161010.6 28.2
2017-May-13 11:00N 06°30' W 162°00'8 8.5 040 / 221011.4 28.2
2017-May-13 10:00N 06°36' W 162°06'8 8.5 040 / 201011.7 28.1
2017-May-13 09:00N 06°42' W 162°12'6 6.0 050 / 211011.9 28.2
2017-May-13 08:00N 06°42' W 162°18'1211.9 040 / 211011.4 28.2
2017-May-13 07:00N 06°42' W 162°30'8 8.5 070 / 191010.5 28.2
2017-May-13 06:00N 06°36' W 162°24'6 6.0 060 / 191010.4 28.2
2017-May-13 05:00N 06°36' W 162°18'8 8.5 060 / 171010.0 28.3
2017-May-13 04:00N 06°30' W 162°12'8 8.5 060 / 181009.6 28.2
2017-May-13 03:00N 06°24' W 162°06'6 6.0 060 / 191008.9 28.2
2017-May-13 02:00N 06°24' W 162°12'6 6.0 040 / 201009.1 28.3
2017-May-13 01:00N 06°24' W 162°18'0 0.0 060 / 171009.6 28.3
2017-May-13 00:00N 06°24' W 162°18'0 0.0 050 / 171010.3 28.3
2017-May-12 23:00N 06°24' W 162°18'0 0.0 060 / 191011.0 28.3
2017-May-12 22:00N 06°24' W 162°18'0 0.0 060 / 181011.3 28.2
2017-May-12 21:00N 06°24' W 162°18'0 0.0 060 / 171011.5 28.2
2017-May-12 20:00N 06°24' W 162°18'0 0.0 060 / 181011.4 28.2
2017-May-12 19:00N 06°24' W 162°18'0 0.0 060 / 171011.2 28.1
2017-May-12 18:00N 06°24' W 162°18'6 6.0 070 / 191010.9 28.1
2017-May-12 17:00N 06°18' W 162°18'6 6.0 060 / 191010.4 28.1
2017-May-12 16:00N 06°18' W 162°24'8 8.5 060 / 161010.5 28.2
2017-May-12 15:00N 06°12' W 162°18'1313.4 060 / 151010.4 28.2
2017-May-12 14:00N 06°06' W 162°06'8 8.5 080 / 191010.1 28.2
2017-May-12 13:00N 06°00' W 162°00'6 6.0 070 / 151010.6 28.1
2017-May-12 12:00N 06°06' W 162°00'8 8.5 060 / 201010.8 28.1
2017-May-12 11:00N 06°12' W 162°06'0 0.0 050 / 191011.5 28.2
2017-May-12 10:00N 06°12' W 162°06'8 8.5 070 / 211011.5 28.2
2017-May-12 09:00N 06°06' W 162°00'1313.4 070 / 211011.6 28.2
2017-May-12 08:00N 06°00' W 161°48'8 8.5 070 / 211011.0 28.2
2017-May-12 07:00N 05°54' W 161°42'8 8.5 070 / 201010.6 28.2
2017-May-12 06:00N 05°48' W 161°48'6 6.0 060 / 191009.8 28.2
2017-May-12 05:00N 05°48' W 161°54'1211.9 050 / 211009.3 28.2
2017-May-12 04:00N 05°48' W 162°06'6 6.0 040 / 191008.7 28.4
2017-May-12 03:00N 05°54' W 162°06'0 0.0 050 / 181008.9 28.4
2017-May-12 02:00N 05°54' W 162°06'0 0.0 040 / 171009.2 28.4
2017-May-12 01:00N 05°54' W 162°06'0 0.0 060 / 181009.4 28.4
2017-May-12 00:00N 05°54' W 162°06'0 0.0 070 / 191010.0 28.3
2017-May-11 23:00N 05°54' W 162°06'0 0.0 070 / 191010.4 28.3
2017-May-11 22:00N 05°54' W 162°06'0 0.0 060 / 171011.0 28.3
2017-May-11 21:00N 05°54' W 162°06'0 0.0 060 / 181011.6 28.2
2017-May-11 20:00N 05°54' W 162°06'0 0.0 060 / 161011.8 28.2
2017-May-11 19:00N 05°54' W 162°06'8 8.5 060 / 161011.7 28.2
2017-May-11 18:00N 05°48' W 162°00'0 0.0 070 / 161011.5 28.2
2017-May-11 17:00N 05°48' W 162°00'1211.9 070 / 161011.0 28.2
2017-May-11 16:00N 05°48' W 161°48'6 6.0 060 / 171010.5 28.1
2017-May-11 15:00N 05°48' W 161°42'8 8.5 080 / 171009.8 28.1
2017-May-11 14:00N 05°42' W 161°36'6 6.0 070 / 161009.7 28.1
2017-May-11 13:00N 05°42' W 161°30'8 8.5 050 / 201009.7 28.2
2017-May-11 12:00N 05°48' W 161°36'8 8.5 050 / 221010.2 28.1
2017-May-11 11:00N 05°54' W 161°42'8 8.5 050 / 211010.8 28.1
2017-May-11 10:00N 06°00' W 161°48'8 8.5 050 / 201011.2 28.2
2017-May-11 09:00N 06°06' W 161°54'8 8.5 060 / 221011.3 28.2
2017-May-11 08:00N 06°12' W 162°00'6 6.0 060 / 231011.0 28.2
2017-May-11 07:00N 06°12' W 162°06'8 8.5 080 / 211010.6 28.2
2017-May-11 06:00N 06°06' W 162°12'6 6.0 070 / 201010.0 28.2
2017-May-11 05:00N 06°06' W 162°18'8 8.5 070 / 211009.5 28.2
2017-May-11 04:00N 06°00' W 162°24'6 6.0 070 / 221009.1 28.3
2017-May-11 03:00N 06°00' W 162°30'8 8.5 070 / 181009.1 28.3
2017-May-11 02:00N 05°54' W 162°36'6 6.0 070 / 181009.2 28.3
2017-May-11 01:00N 05°54' W 162°30'0 0.0 080 / 191009.3 28.3
2017-May-11 00:00N 05°54' W 162°30'0 0.0 070 / 201010.3 28.3
2017-May-10 23:00N 05°54' W 162°30'0 0.0 080 / 181011.0 28.3
2017-May-10 22:00N 05°54' W 162°30'0 0.0 090 / 181011.6 28.2
2017-May-10 21:00N 05°54' W 162°30'0 0.0 090 / 201012.0 28.2
2017-May-10 20:00N 05°54' W 162°30'0 0.0 100 / 171012.2 28.2
2017-May-10 19:00N 05°54' W 162°30'0 0.0 090 / 171012.0 28.2
2017-May-10 18:00N 05°54' W 162°30'0 0.0 090 / 131011.6 28.1
2017-May-10 17:00N 05°54' W 162°30'6 6.0 090 / 171010.9 28.2
2017-May-10 16:00N 05°48' W 162°30'1212.0 100 / 211010.1 28.1
2017-May-10 15:00N 05°36' W 162°30'1212.0 100 / 201009.6 28.2
2017-May-10 14:00N 05°24' W 162°30'6 6.0 100 / 211009.6 28.2
2017-May-10 13:00N 05°18' W 162°30'1212.0 090 / 191009.8 28.2
2017-May-10 12:00N 05°06' W 162°30'6 6.0 090 / 181010.5 28.2
2017-May-10 11:00N 05°00' W 162°30'1313.4 090 / 151010.9 28.2
2017-May-10 10:00N 04°48' W 162°24'6 6.0 090 / 211011.3 28.3
2017-May-10 09:00N 04°42' W 162°24'1212.0 080 / 201011.6 28.2
2017-May-10 08:00N 04°30' W 162°24'6 6.0 090 / 191011.5 28.2
2017-May-10 07:00N 04°24' W 162°24'1212.0 090 / 201011.1 28.3
2017-May-10 06:00N 04°12' W 162°24'1212.0 080 / 191010.5 28.5
2017-May-10 05:00N 04°00' W 162°24'6 6.0 080 / 201009.8 28.5
2017-May-10 04:00N 03°54' W 162°24'1212.0 080 / 171009.3 28.6
2017-May-10 03:00N 03°42' W 162°24'6 6.0 090 / 181009.2 28.6
2017-May-10 02:00N 03°36' W 162°24'6 6.0 070 / 121009.4 28.7
2017-May-10 01:00N 03°42' W 162°24'0 0.0 070 / 141009.7 28.7
2017-May-10 00:00N 03°42' W 162°24'1212.0 080 / 121010.0 28.7
2017-May-09 23:00N 03°30' W 162°24'8 8.5 100 / 171010.4 28.5
2017-May-09 22:00N 03°24' W 162°30'1818.0 090 / 161011.2 28.6
2017-May-09 21:00N 03°06' W 162°30'0 0.0 030 / 31008.0 1.1 28.025.228.0
2017-May-09 20:00N 03°06' W 162°30'1313.4 090 / 161012.4 28.4
2017-May-09 19:00N 02°54' W 162°36'6 6.0 090 / 171012.3 28.4
2017-May-09 18:00N 02°48' W 162°36'   090 / 181011.7 28.5
Track history (hours):
 
Tides and Currents Weather Stations Pressure Air Temp Water Temp Dewpoint Dewpoint Depression Visibility Wind Speed Wind Dir Waves Ship Positions

Oceanographic research ship Okeanos Explorer (USA)

Ship's website: http://oceanexplorer.noaa.gov/okeanos/

Last reported at 2017-May-19 18:00 UTC. Time now 2017-May-28 12:24 UTC.
Position N 21°18' W 158°00'.
Warning: this ship's position is 8 days out of date.

Length 69 m; draft 5 m.

Type: Other ship. MMSI: 369888000.

Wind from 090 at 5 knots

Barometer 1015.6 mb
Water temperature 26.1 ° C

Date/timePositionNaut miles runAvg speedWind from/ knotsBaromVisibWave heightAir tempDewpointWater temp
2017-May-19 18:00N 21°18' W 158°00'6 6.0 090 / 51015.6 26.1
2017-May-19 17:00N 21°12' W 158°00'8 8.2 130 / 91015.3 26.1
2017-May-19 16:00N 21°06' W 157°54'6 6.0 130 / 91014.6 25.8
2017-May-19 15:00N 21°00' W 157°54'6 6.0 120 / 91014.6 25.6
2017-May-19 14:00N 20°54' W 157°54'8 8.2 130 / 41014.5 26.1
2017-May-19 13:00N 20°48' W 158°00'6 6.0 150 / 31014.6 26.2
2017-May-19 12:00N 20°54' W 158°00'6 5.6 130 / 31015.0 26.2
2017-May-19 11:00N 20°54' W 157°54'8 8.2 180 / 31015.2 25.9
2017-May-19 10:00N 20°48' W 158°00'6 6.0 160 / 61015.6 26.2
2017-May-19 09:00N 20°42' W 158°00'8 8.2 100 / 21016.0 26.5
2017-May-19 08:00N 20°36' W 158°06'0 0.0 060 / 31016.0 26.8
2017-May-19 07:00N 20°36' W 158°06'1212.0 240 / 21015.6 26.5
2017-May-19 06:00N 20°24' W 158°06'6 6.0 110 / 21015.2 26.1
2017-May-19 05:00N 20°18' W 158°06'1313.3 130 / 21014.9 25.7
2017-May-19 04:00N 20°06' W 158°12'6 6.0 140 / 41014.6 26.2
2017-May-19 03:00N 20°00' W 158°12'1313.3 120 / 31014.2 26.2
2017-May-19 02:00N 19°48' W 158°18'6 6.0 150 / 41014.3 26.4
2017-May-19 01:00N 19°42' W 158°18'8 8.2 160 / 51014.6 26.2
2017-May-19 00:00N 19°36' W 158°24'8 8.2 120 / 71015.0 25.9
2017-May-18 23:00N 19°30' W 158°30'1212.0 120 / 51015.5 26.0
2017-May-18 22:00N 19°18' W 158°30'8 8.3 110 / 91016.0 25.9
2017-May-18 21:00N 19°12' W 158°36'6 6.0 110 / 101016.3 25.9
2017-May-18 20:00N 19°06' W 158°36'1313.3 100 / 101016.2 25.9
2017-May-18 19:00N 18°54' W 158°42'8 8.3 100 / 121016.0 25.8
2017-May-18 18:00N 18°48' W 158°48'6 6.0 080 / 101015.8 26.1
2017-May-18 17:00N 18°42' W 158°48'1313.3 080 / 101015.1 26.1
2017-May-18 16:00N 18°30' W 158°54'8 8.3 100 / 121014.6 26.0
2017-May-18 15:00N 18°24' W 159°00'1313.3 100 / 131014.2 26.0
2017-May-18 14:00N 18°12' W 159°06'6 6.0 110 / 151014.2 25.9
2017-May-18 13:00N 18°06' W 159°06'1313.3 110 / 141014.2 25.9
2017-May-18 12:00N 17°54' W 159°12'8 8.3 110 / 161014.6 25.9
2017-May-18 11:00N 17°48' W 159°18'1212.0 110 / 181015.1 25.9
2017-May-18 10:00N 17°36' W 159°18'8 8.3 110 / 201015.6 26.0
2017-May-18 09:00N 17°30' W 159°24'8 8.3 110 / 181015.9 26.0
2017-May-18 08:00N 17°24' W 159°30'1212.0 110 / 201015.6 26.0
2017-May-18 07:00N 17°12' W 159°30'8 8.3 110 / 211015.2 26.0
2017-May-18 06:00N 17°06' W 159°36'8 8.3 110 / 231014.6 26.0
2017-May-18 05:00N 17°00' W 159°42'6 6.0 100 / 221014.2 26.1
2017-May-18 04:00N 16°54' W 159°42'1313.3 090 / 221013.6 26.2
2017-May-18 03:00N 16°42' W 159°48'6 6.0 090 / 231013.3 26.3
2017-May-18 02:00N 16°36' W 159°48'8 8.3 090 / 231013.3 26.4
2017-May-18 01:00N 16°30' W 159°54'8 8.3 090 / 241013.2 26.3
2017-May-18 00:00N 16°24' W 160°00'1212.0 090 / 201013.9 26.3
2017-May-17 23:00N 16°12' W 160°00'8 8.3 090 / 221014.1 26.4
2017-May-17 22:00N 16°06' W 160°06'6 6.0 100 / 241014.5 26.3
2017-May-17 21:00N 16°00' W 160°06'1212.0 090 / 231014.9 26.3
2017-May-17 20:00N 15°48' W 160°06'8 8.3 090 / 241015.0 26.3
2017-May-17 19:00N 15°42' W 160°12'6 6.0 090 / 251014.6 26.3
2017-May-17 18:00N 15°36' W 160°12'1313.3 090 / 221014.4 26.3
2017-May-17 17:00N 15°24' W 160°18'6 6.0 080 / 241013.7 26.3
2017-May-17 16:00N 15°18' W 160°18'8 8.3 090 / 241013.3 26.3
2017-May-17 15:00N 15°12' W 160°24'1212.0 080 / 251013.0 26.3
2017-May-17 14:00N 15°00' W 160°24'6 6.0 090 / 261012.8 26.3
2017-May-17 13:00N 14°54' W 160°24'6 6.0 080 / 261013.2 26.3
2017-May-17 12:00N 14°48' W 160°24'8 8.3 070 / 211013.8 26.3
2017-May-17 11:00N 14°42' W 160°30'8 8.3 080 / 221014.2 26.2
2017-May-17 10:00N 14°36' W 160°36'6 6.0 080 / 231014.6 26.2
2017-May-17 09:00N 14°30' W 160°36'8 8.4 090 / 241014.7 26.3
2017-May-17 08:00N 14°24' W 160°42'6 6.0 090 / 261014.3 26.3
2017-May-17 07:00N 14°18' W 160°42'1313.3 080 / 251013.8 26.3
2017-May-17 06:00N 14°06' W 160°48'6 6.0 080 / 241013.3 26.4
2017-May-17 05:00N 14°00' W 160°48'8 8.4 080 / 201012.8 26.4
2017-May-17 04:00N 13°54' W 160°54'1212.0 090 / 191012.6 26.4
2017-May-17 03:00N 13°42' W 160°54'8 8.4 100 / 211011.9 26.6
2017-May-17 02:00N 13°36' W 161°00'6 6.0 100 / 221011.9 26.6
2017-May-17 01:00N 13°30' W 161°00'6 6.0 090 / 221012.0 26.6
2017-May-17 00:00N 13°24' W 161°00'1313.3 090 / 231012.2 26.7
2017-May-16 23:00N 13°12' W 161°06'6 6.0 090 / 251012.8 26.8
2017-May-16 22:00N 13°06' W 161°06'8 8.4 090 / 251012.8 26.8
2017-May-16 21:00N 13°00' W 161°12'6 6.0 090 / 261013.0 27.0
2017-May-16 20:00N 12°54' W 161°12'8 8.4 090 / 271013.1 27.0
2017-May-16 19:00N 12°48' W 161°18'1212.0 100 / 261013.0 27.0
2017-May-16 18:00N 12°36' W 161°18'8 8.4 100 / 261012.6 27.1
2017-May-16 17:00N 12°30' W 161°24'6 6.0 090 / 271011.7 27.1
2017-May-16 16:00N 12°24' W 161°24'6 6.0 090 / 281011.0 27.1
2017-May-16 15:00N 12°18' W 161°24'1313.4 100 / 241010.7 27.1
2017-May-16 14:00N 12°06' W 161°30'6 6.0 080 / 251010.6 27.1
2017-May-16 13:00N 12°00' W 161°30'8 8.4 090 / 261010.8 27.1
2017-May-16 12:00N 11°54' W 161°36'6 6.0 090 / 251011.2 27.1
2017-May-16 11:00N 11°48' W 161°36'1313.4 080 / 261011.5 27.1
2017-May-16 10:00N 11°36' W 161°42'6 6.0 090 / 251012.2 27.1
2017-May-16 09:00N 11°30' W 161°42'8 8.4 080 / 251012.2 27.1
2017-May-16 08:00N 11°24' W 161°48'6 6.0 080 / 251012.0 27.2
2017-May-16 07:00N 11°18' W 161°48'1313.4 090 / 261011.6 27.2
2017-May-16 06:00N 11°06' W 161°54'6 6.0 080 / 241011.2 27.2
2017-May-16 05:00N 11°00' W 161°54'8 8.4 090 / 251010.8 27.3
2017-May-16 04:00N 10°54' W 162°00'6 6.0 080 / 271010.2 27.3
2017-May-16 03:00N 10°48' W 162°00'6 6.0 090 / 281010.2 27.3
2017-May-16 02:00N 10°42' W 162°00'1313.4 080 / 241010.2 27.3
2017-May-16 01:00N 10°30' W 162°06'6 6.0 080 / 251010.4 27.3
2017-May-16 00:00N 10°24' W 162°06'8 8.4 080 / 241010.9 27.3
2017-May-15 23:00N 10°18' W 162°12'6 6.0 080 / 261011.2 27.3
2017-May-15 22:00N 10°12' W 162°12'1313.4 080 / 241011.4 27.3
2017-May-15 21:00N 10°00' W 162°18'0 0.0 080 / 231011.6 27.3
2017-May-15 20:00N 10°00' W 162°18'0 0.0 060 / 211011.9 27.3
2017-May-15 19:00N 10°00' W 162°18'6 5.9 060 / 211011.7 27.3
2017-May-15 18:00N 10°00' W 162°12'0 0.0 060 / 231011.3 27.3
2017-May-15 17:00N 10°00' W 162°12'6 6.0 070 / 221010.7 27.3
2017-May-15 16:00N 09°54' W 162°12'6 6.0 070 / 271010.1 27.4
2017-May-15 15:00N 09°48' W 162°12'1212.0 070 / 251010.0 27.6
2017-May-15 14:00N 09°36' W 162°12'8 8.4 080 / 221009.8 27.7
2017-May-15 13:00N 09°30' W 162°06'6 6.0 070 / 241010.1 27.9
2017-May-15 12:00N 09°24' W 162°06'1313.4 080 / 241010.6 28.0
2017-May-15 11:00N 09°12' W 162°00'6 6.0 100 / 221011.3 28.1
2017-May-15 10:00N 09°06' W 162°00'1313.4 080 / 261011.5 28.1
2017-May-15 09:00N 08°54' W 161°54'8 8.4 080 / 231011.7 28.1
2017-May-15 08:00N 08°48' W 161°48'6 6.0 080 / 221011.5 28.2
2017-May-15 07:00N 08°42' W 161°48'1313.4 080 / 251010.9 28.2
2017-May-15 06:00N 08°30' W 161°42'6 6.0 080 / 231010.3 28.2
2017-May-15 05:00N 08°24' W 161°42'1313.4 080 / 231010.0 28.2
2017-May-15 04:00N 08°12' W 161°36'6 6.0 080 / 251009.2 28.1
2017-May-15 03:00N 08°06' W 161°36'6 6.0 070 / 281008.8 28.1
2017-May-15 02:00N 08°00' W 161°36'1313.4 070 / 241009.2 28.1
2017-May-15 01:00N 07°48' W 161°30'8 8.4 070 / 231009.6 28.1
2017-May-15 00:00N 07°42' W 161°24'6 6.0 070 / 241010.3 28.1
2017-May-14 23:00N 07°36' W 161°24'8 8.4 070 / 241010.6 28.1
2017-May-14 22:00N 07°30' W 161°18'1313.4 070 / 241011.0 28.1
2017-May-14 21:00N 07°18' W 161°12'6 6.0 070 / 241011.4 28.1
2017-May-14 20:00N 07°12' W 161°12'0 0.0 050 / 241011.5 28.0
2017-May-14 19:00N 07°12' W 161°12'0 0.0 060 / 201011.1 28.0
2017-May-14 18:00N 07°12' W 161°12'0 0.0 060 / 221010.8 28.0
2017-May-14 17:00N 07°12' W 161°12'8 8.5 060 / 211010.2 28.0
2017-May-14 16:00N 07°06' W 161°18'6 6.0 060 / 221009.9 28.0
2017-May-14 15:00N 07°06' W 161°24'6 6.0 060 / 211009.6 28.0
2017-May-14 14:00N 07°00' W 161°24'8 8.5 060 / 211009.6 28.0
2017-May-14 13:00N 06°54' W 161°30'6 6.0 050 / 201009.9 28.0
2017-May-14 12:00N 06°54' W 161°36'8 8.5 070 / 171010.3 28.0
2017-May-14 11:00N 06°48' W 161°42'8 8.5 060 / 191010.8 28.1
2017-May-14 10:00N 06°42' W 161°48'8 8.5 060 / 161011.0 28.2
2017-May-14 09:00N 06°36' W 161°54'6 6.0 060 / 211011.0 28.2
2017-May-14 08:00N 06°36' W 162°00'8 8.5 070 / 201010.8 28.2
2017-May-14 07:00N 06°30' W 162°06'8 8.5 050 / 211010.3 28.2
2017-May-14 06:00N 06°24' W 162°12'0 0.0 070 / 201009.8 28.2
2017-May-14 05:00N 06°24' W 162°12'0 0.0 050 / 181009.4 28.2
2017-May-14 04:00N 06°24' W 162°12'0 0.0 040 / 201009.0 28.2
2017-May-14 03:00N 06°24' W 162°12'0 0.0 040 / 191008.8 28.2
2017-May-14 02:00N 06°24' W 162°12'0 0.0 050 / 181009.2 28.3
2017-May-14 01:00N 06°24' W 162°12'0 0.0 050 / 211009.5 28.2
2017-May-14 00:00N 06°24' W 162°12'0 0.0 050 / 181010.1 28.2
2017-May-13 23:00N 06°24' W 162°12'0 0.0 060 / 201010.7 28.2
2017-May-13 22:00N 06°24' W 162°12'0 0.0 040 / 181011.2 28.2
2017-May-13 21:00N 06°24' W 162°12'0 0.0 040 / 191011.5 28.2
2017-May-13 20:00N 06°24' W 162°12'0 0.0 050 / 201011.5 28.1
2017-May-13 19:00N 06°24' W 162°12'0 0.0 060 / 181011.5 28.1
2017-May-13 18:00N 06°24' W 162°12'0 0.0 050 / 161011.0 28.1
2017-May-13 17:00N 06°24' W 162°12'8 8.5 060 / 161011.0 28.1
2017-May-13 16:00N 06°30' W 162°06'8 8.5 040 / 161010.8 28.1
2017-May-13 15:00N 06°24' W 162°00'1313.4 050 / 201010.1 28.2
2017-May-13 14:00N 06°18' W 161°48'8 8.5 060 / 191010.1 28.2
2017-May-13 13:00N 06°24' W 161°42'19 9.4 040 / 161010.6 28.2
2017-May-13 11:00N 06°30' W 162°00'8 8.5 040 / 221011.4 28.2
2017-May-13 10:00N 06°36' W 162°06'8 8.5 040 / 201011.7 28.1
2017-May-13 09:00N 06°42' W 162°12'6 6.0 050 / 211011.9 28.2
2017-May-13 08:00N 06°42' W 162°18'1211.9 040 / 211011.4 28.2
2017-May-13 07:00N 06°42' W 162°30'8 8.5 070 / 191010.5 28.2
2017-May-13 06:00N 06°36' W 162°24'6 6.0 060 / 191010.4 28.2
2017-May-13 05:00N 06°36' W 162°18'8 8.5 060 / 171010.0 28.3
2017-May-13 04:00N 06°30' W 162°12'8 8.5 060 / 181009.6 28.2
2017-May-13 03:00N 06°24' W 162°06'6 6.0 060 / 191008.9 28.2
2017-May-13 02:00N 06°24' W 162°12'6 6.0 040 / 201009.1 28.3
2017-May-13 01:00N 06°24' W 162°18'0 0.0 060 / 171009.6 28.3
2017-May-13 00:00N 06°24' W 162°18'0 0.0 050 / 171010.3 28.3
2017-May-12 23:00N 06°24' W 162°18'0 0.0 060 / 191011.0 28.3
2017-May-12 22:00N 06°24' W 162°18'0 0.0 060 / 181011.3 28.2
2017-May-12 21:00N 06°24' W 162°18'0 0.0 060 / 171011.5 28.2
2017-May-12 20:00N 06°24' W 162°18'0 0.0 060 / 181011.4 28.2
2017-May-12 19:00N 06°24' W 162°18'0 0.0 060 / 171011.2 28.1
2017-May-12 18:00N 06°24' W 162°18'6 6.0 070 / 191010.9 28.1
2017-May-12 17:00N 06°18' W 162°18'6 6.0 060 / 191010.4 28.1
2017-May-12 16:00N 06°18' W 162°24'8 8.5 060 / 161010.5 28.2
2017-May-12 15:00N 06°12' W 162°18'1313.4 060 / 151010.4 28.2
2017-May-12 14:00N 06°06' W 162°06'8 8.5 080 / 191010.1 28.2
2017-May-12 13:00N 06°00' W 162°00'6 6.0 070 / 151010.6 28.1
2017-May-12 12:00N 06°06' W 162°00'8 8.5 060 / 201010.8 28.1
2017-May-12 11:00N 06°12' W 162°06'0 0.0 050 / 191011.5 28.2
2017-May-12 10:00N 06°12' W 162°06'8 8.5 070 / 211011.5 28.2
2017-May-12 09:00N 06°06' W 162°00'1313.4 070 / 211011.6 28.2
2017-May-12 08:00N 06°00' W 161°48'8 8.5 070 / 211011.0 28.2
2017-May-12 07:00N 05°54' W 161°42'8 8.5 070 / 201010.6 28.2
2017-May-12 06:00N 05°48' W 161°48'6 6.0 060 / 191009.8 28.2
2017-May-12 05:00N 05°48' W 161°54'1211.9 050 / 211009.3 28.2
2017-May-12 04:00N 05°48' W 162°06'6 6.0 040 / 191008.7 28.4
2017-May-12 03:00N 05°54' W 162°06'0 0.0 050 / 181008.9 28.4
2017-May-12 02:00N 05°54' W 162°06'0 0.0 040 / 171009.2 28.4
2017-May-12 01:00N 05°54' W 162°06'0 0.0 060 / 181009.4 28.4
2017-May-12 00:00N 05°54' W 162°06'0 0.0 070 / 191010.0 28.3
2017-May-11 23:00N 05°54' W 162°06'0 0.0 070 / 191010.4 28.3
2017-May-11 22:00N 05°54' W 162°06'0 0.0 060 / 171011.0 28.3
2017-May-11 21:00N 05°54' W 162°06'0 0.0 060 / 181011.6 28.2
2017-May-11 20:00N 05°54' W 162°06'0 0.0 060 / 161011.8 28.2
2017-May-11 19:00N 05°54' W 162°06'8 8.5 060 / 161011.7 28.2
2017-May-11 18:00N 05°48' W 162°00'0 0.0 070 / 161011.5 28.2
2017-May-11 17:00N 05°48' W 162°00'1211.9 070 / 161011.0 28.2
2017-May-11 16:00N 05°48' W 161°48'6 6.0 060 / 171010.5 28.1
2017-May-11 15:00N 05°48' W 161°42'8 8.5 080 / 171009.8 28.1
2017-May-11 14:00N 05°42' W 161°36'6 6.0 070 / 161009.7 28.1
2017-May-11 13:00N 05°42' W 161°30'8 8.5 050 / 201009.7 28.2
2017-May-11 12:00N 05°48' W 161°36'8 8.5 050 / 221010.2 28.1
2017-May-11 11:00N 05°54' W 161°42'8 8.5 050 / 211010.8 28.1
2017-May-11 10:00N 06°00' W 161°48'8 8.5 050 / 201011.2 28.2
2017-May-11 09:00N 06°06' W 161°54'8 8.5 060 / 221011.3 28.2
2017-May-11 08:00N 06°12' W 162°00'6 6.0 060 / 231011.0 28.2
2017-May-11 07:00N 06°12' W 162°06'8 8.5 080 / 211010.6 28.2
2017-May-11 06:00N 06°06' W 162°12'6 6.0 070 / 201010.0 28.2
2017-May-11 05:00N 06°06' W 162°18'8 8.5 070 / 211009.5 28.2
2017-May-11 04:00N 06°00' W 162°24'6 6.0 070 / 221009.1 28.3
2017-May-11 03:00N 06°00' W 162°30'8 8.5 070 / 181009.1 28.3
2017-May-11 02:00N 05°54' W 162°36'6 6.0 070 / 181009.2 28.3
2017-May-11 01:00N 05°54' W 162°30'0 0.0 080 / 191009.3 28.3
2017-May-11 00:00N 05°54' W 162°30'0 0.0 070 / 201010.3 28.3
2017-May-10 23:00N 05°54' W 162°30'0 0.0 080 / 181011.0 28.3
2017-May-10 22:00N 05°54' W 162°30'0 0.0 090 / 181011.6 28.2
2017-May-10 21:00N 05°54' W 162°30'0 0.0 090 / 201012.0 28.2
2017-May-10 20:00N 05°54' W 162°30'0 0.0 100 / 171012.2 28.2
2017-May-10 19:00N 05°54' W 162°30'0 0.0 090 / 171012.0 28.2
2017-May-10 18:00N 05°54' W 162°30'0 0.0 090 / 131011.6 28.1
2017-May-10 17:00N 05°54' W 162°30'6 6.0 090 / 171010.9 28.2
2017-May-10 16:00N 05°48' W 162°30'1212.0 100 / 211010.1 28.1
2017-May-10 15:00N 05°36' W 162°30'1212.0 100 / 201009.6 28.2
2017-May-10 14:00N 05°24' W 162°30'6 6.0 100 / 211009.6 28.2
2017-May-10 13:00N 05°18' W 162°30'1212.0 090 / 191009.8 28.2
2017-May-10 12:00N 05°06' W 162°30'6 6.0 090 / 181010.5 28.2
2017-May-10 11:00N 05°00' W 162°30'1313.4 090 / 151010.9 28.2
2017-May-10 10:00N 04°48' W 162°24'6 6.0 090 / 211011.3 28.3
2017-May-10 09:00N 04°42' W 162°24'1212.0 080 / 201011.6 28.2
2017-May-10 08:00N 04°30' W 162°24'6 6.0 090 / 191011.5 28.2
2017-May-10 07:00N 04°24' W 162°24'1212.0 090 / 201011.1 28.3
2017-May-10 06:00N 04°12' W 162°24'1212.0 080 / 191010.5 28.5
2017-May-10 05:00N 04°00' W 162°24'6 6.0 080 / 201009.8 28.5
2017-May-10 04:00N 03°54' W 162°24'1212.0 080 / 171009.3 28.6
2017-May-10 03:00N 03°42' W 162°24'6 6.0 090 / 181009.2 28.6
2017-May-10 02:00N 03°36' W 162°24'6 6.0 070 / 121009.4 28.7
2017-May-10 01:00N 03°42' W 162°24'0 0.0 070 / 141009.7 28.7
2017-May-10 00:00N 03°42' W 162°24'1212.0 080 / 121010.0 28.7
2017-May-09 23:00N 03°30' W 162°24'8 8.5 100 / 171010.4 28.5
2017-May-09 22:00N 03°24' W 162°30'1818.0 090 / 161011.2 28.6
2017-May-09 21:00N 03°06' W 162°30'0 0.0 030 / 31008.0 1.1 28.025.228.0
2017-May-09 20:00N 03°06' W 162°30'1313.4 090 / 161012.4 28.4
2017-May-09 19:00N 02°54' W 162°36'6 6.0 090 / 171012.3 28.4
2017-May-09 18:00N 02°48' W 162°36'   090 / 181011.7 28.5

Dump ship's entire track history